Time;durP1;ratioP1;P1;durP2;ratioP2;P2;SDS_P1;SDS_P2;PMS_P1;PMS_P2;Temp;Humidity;BMP_temperature;BMP_pressure;BME280_temperature;BME280_humidity;BME280_pressure;Samples;Min_cycle;Max_cycle;Signal;HPM_P1;HPM_P2
2022/06/17 00:01:49;;;;;;;8.08;3.90;;;;;;;16.33;78.35;100907.14;1760589;79;26237;-83
2022/06/17 00:04:16;;;;;;;5.97;3.85;;;;;;;16.23;78.59;100910.30;1754875;79;27466;-81
2022/06/17 00:06:50;;;;;;;8.50;4.00;;;;;;;16.09;78.09;100904.66;1719168;80;25948;-81
2022/06/17 00:09:20;;;;;;;6.10;4.25;;;;;;;15.99;78.21;100912.41;1764364;80;25866;-81
2022/06/17 00:11:47;;;;;;;4.25;3.20;;;;;;;15.96;78.31;100910.11;1744921;81;26009;-82
2022/06/17 00:14:18;;;;;;;8.48;4.00;;;;;;;15.89;78.25;100908.79;1750522;81;25342;-82
2022/06/17 00:16:45;;;;;;;5.25;3.85;;;;;;;15.82;78.16;100912.06;1741517;81;27441;-82
2022/06/17 00:19:12;;;;;;;4.97;3.45;;;;;;;15.79;78.20;100915.69;1742461;80;25346;-81
2022/06/17 00:21:43;;;;;;;3.77;3.42;;;;;;;15.74;78.07;100922.27;1735803;81;25769;-83
2022/06/17 00:24:26;;;;;;;4.97;3.27;;;;;;;15.73;78.26;100916.55;1760552;79;25856;-82
2022/06/17 00:26:54;;;;;;;6.15;3.90;;;;;;;15.74;78.17;100922.27;1731214;80;25991;-81
2022/06/17 00:29:25;;;;;;;4.30;3.70;;;;;;;15.73;78.06;100910.63;1749865;79;27508;-82
2022/06/17 00:31:52;;;;;;;6.40;3.42;;;;;;;15.75;77.97;100919.86;1748350;79;25771;-80
2022/06/17 00:34:18;;;;;;;5.03;3.77;;;;;;;15.69;77.66;100918.84;1710287;81;26506;-82
2022/06/17 00:36:45;;;;;;;5.42;3.40;;;;;;;15.63;77.71;100915.62;1741999;80;26570;-81
2022/06/17 00:39:19;;;;;;;9.65;3.50;;;;;;;15.59;77.58;100914.94;1738908;80;25775;-81
2022/06/17 00:41:49;;;;;;;5.00;3.20;;;;;;;15.57;77.77;100911.61;1762965;79;28345;-82
2022/06/17 00:44:39;;;;;;;7.90;4.20;;;;;;;15.55;77.76;100914.50;1733067;81;25801;-81
2022/06/17 00:47:17;;;;;;;4.65;3.10;;;;;;;15.51;77.60;100915.13;1740833;80;25774;-82
2022/06/17 00:49:53;;;;;;;3.20;2.90;;;;;;;15.49;77.64;100921.27;1704826;81;26406;-82
2022/06/17 00:52:25;;;;;;;4.35;2.95;;;;;;;15.46;77.48;100921.70;1728132;80;27399;-82
2022/06/17 00:54:59;;;;;;;3.95;2.77;;;;;;;15.42;77.42;100924.78;1757547;79;27443;-82
2022/06/17 00:57:36;;;;;;;6.60;3.08;;;;;;;15.40;77.42;100928.21;1777484;79;26500;-82
2022/06/17 01:00:20;;;;;;;5.15;3.27;;;;;;;15.38;77.41;100927.59;1759520;79;26572;-82
2022/06/17 01:03:04;;;;;;;6.05;3.40;;;;;;;15.38;77.34;100924.89;1729828;80;26555;-80
2022/06/17 01:05:45;;;;;;;5.20;2.80;;;;;;;15.35;77.18;100924.50;1757522;79;25708;-81
2022/06/17 01:09:57;;;;;;;8.33;3.15;;;;;;;15.32;77.04;100928.44;1729600;80;27444;-82
2022/06/17 01:10:48;;;;;;;5.33;3.40;;;;;;;15.31;77.01;100934.05;1733609;80;25942;-82
2022/06/17 01:13:16;;;;;;;4.65;3.15;;;;;;;15.28;76.88;100931.25;1705070;81;25776;-82
2022/06/17 01:15:43;;;;;;;5.08;3.17;;;;;;;15.25;76.70;100933.00;1741400;80;26588;-82
2022/06/17 01:18:12;;;;;;;3.00;2.70;;;;;;;15.23;76.66;100936.44;1737253;80;25816;-82
2022/06/17 01:20:42;;;;;;;4.47;3.83;;;;;;;15.24;76.61;100942.66;1721937;80;27490;-82
2022/06/17 01:23:13;;;;;;;5.50;3.33;;;;;;;15.19;76.32;100948.69;1742745;79;25891;-82
2022/06/17 01:25:44;;;;;;;4.55;3.20;;;;;;;15.15;76.50;100945.26;1715707;80;25296;-82
2022/06/17 01:28:16;;;;;;;6.40;4.00;;;;;;;15.13;76.43;100948.17;1752778;81;25769;-82
2022/06/17 01:30:46;;;;;;;4.60;3.45;;;;;;;15.10;76.64;100944.53;1726077;80;25808;-82
2022/06/17 01:33:32;;;;;;;3.55;3.25;;;;;;;15.09;76.67;100948.80;1738737;81;27452;-81
2022/06/17 01:36:18;;;;;;;6.30;2.65;;;;;;;15.04;76.14;100944.52;1734910;80;25848;-82
2022/06/17 01:38:50;;;;;;;6.37;3.25;;;;;;;14.98;76.26;100944.84;1737579;80;25523;-81
2022/06/17 01:41:22;;;;;;;5.67;3.50;;;;;;;14.94;76.24;100955.74;1729319;81;25770;-81
2022/06/17 01:43:57;;;;;;;4.40;3.40;;;;;;;14.91;76.11;100955.30;1757821;80;25819;-82
2022/06/17 01:46:34;;;;;;;4.87;3.40;;;;;;;14.87;76.11;100957.59;1752414;81;27453;-81
2022/06/17 01:49:08;;;;;;;4.53;3.45;;;;;;;14.84;75.97;100959.34;1714999;82;26539;-82
2022/06/17 01:51:38;;;;;;;5.65;3.08;;;;;;;14.76;76.05;100956.84;1731406;80;25980;-83
2022/06/17 01:54:10;;;;;;;3.50;3.15;;;;;;;14.69;75.92;100959.53;1747059;79;25825;-82
2022/06/17 01:56:40;;;;;;;5.50;3.10;;;;;;;14.63;76.02;100968.95;1737572;81;25952;-82
2022/06/17 01:59:14;;;;;;;4.92;2.90;;;;;;;14.58;76.28;100970.91;1726520;80;27450;-82
2022/06/17 02:01:45;;;;;;;6.12;3.02;;;;;;;14.55;76.33;100970.50;1728994;81;25830;-83
2022/06/17 02:04:17;;;;;;;4.83;3.02;;;;;;;14.52;76.67;100973.62;1770268;79;25860;-82
2022/06/17 02:07:04;;;;;;;3.42;3.10;;;;;;;14.48;76.86;100970.98;1763575;80;25980;-82
2022/06/17 02:09:31;;;;;;;4.67;3.40;;;;;;;14.46;77.04;100971.70;1762006;79;25882;-81
2022/06/17 02:12:01;;;;;;;3.45;3.15;;;;;;;14.42;76.95;100967.25;1770749;79;28366;-85
2022/06/17 02:14:31;;;;;;;6.83;2.98;;;;;;;14.40;76.84;100977.41;1737213;79;25713;-82
2022/06/17 02:17:00;;;;;;;6.25;2.90;;;;;;;14.36;76.88;100973.96;1715121;81;25902;-82
2022/06/17 02:19:33;;;;;;;5.85;3.47;;;;;;;14.35;76.87;100977.17;1728365;81;26566;-82
2022/06/17 02:22:10;;;;;;;3.52;3.17;;;;;;;14.31;76.81;100983.16;1721579;80;25816;-82
2022/06/17 02:24:39;;;;;;;3.42;3.12;;;;;;;14.27;76.84;100981.36;1731534;80;27465;-81
2022/06/17 02:27:09;;;;;;;5.50;3.60;;;;;;;14.24;77.02;100986.33;1746516;81;26207;-83
2022/06/17 02:29:38;;;;;;;5.12;3.62;;;;;;;14.22;77.06;100989.75;1732491;81;25835;-81
2022/06/17 02:32:07;;;;;;;5.22;3.17;;;;;;;14.20;77.06;100989.92;1743167;80;25817;-82
2022/06/17 02:34:40;;;;;;;4.85;3.75;;;;;;;14.18;77.19;100991.18;1747809;81;25291;-83
2022/06/17 02:37:13;;;;;;;4.78;3.30;;;;;;;14.17;77.47;100982.77;1747349;81;28269;-82
2022/06/17 02:39:48;;;;;;;4.42;3.20;;;;;;;14.18;77.57;100990.64;1704564;81;25746;-82
2022/06/17 02:42:28;;;;;;;4.40;3.98;;;;;;;14.17;77.40;100993.55;1756026;79;25912;-81
2022/06/17 02:45:09;;;;;;;5.05;3.35;;;;;;;14.14;77.47;100995.28;1742830;79;26110;-82
2022/06/17 02:47:37;;;;;;;4.05;3.10;;;;;;;14.12;77.49;101000.88;1743900;80;25321;-81
2022/06/17 02:50:07;;;;;;;4.30;3.30;;;;;;;14.11;77.46;101002.44;1738561;80;27924;-82
2022/06/17 02:52:39;;;;;;;4.55;3.52;;;;;;;14.12;77.70;101007.61;1708926;81;25849;-82
2022/06/17 02:55:27;;;;;;;5.28;3.60;;;;;;;14.11;77.60;101010.52;1745421;81;25798;-84
2022/06/17 02:58:01;;;;;;;3.60;3.10;;;;;;;14.07;77.72;101012.75;1754797;79;26578;-82
2022/06/17 03:00:28;;;;;;;3.95;3.35;;;;;;;14.06;77.81;101012.45;1745098;81;25891;-83
2022/06/17 03:03:00;;;;;;;6.25;3.33;;;;;;;14.05;77.83;101014.81;1753976;79;27623;-84
2022/06/17 03:05:35;;;;;;;4.28;3.00;;;;;;;14.04;77.76;101018.56;1718532;80;25829;-83
2022/06/17 03:08:06;;;;;;;4.15;3.27;;;;;;;14.04;77.86;101015.87;1759149;81;25879;-85
2022/06/17 03:10:38;;;;;;;5.90;3.58;;;;;;;14.03;77.95;101019.58;1729127;80;26143;-84
2022/06/17 03:13:12;;;;;;;5.40;3.53;;;;;;;14.05;78.05;101020.74;1722411;81;25938;-82
2022/06/17 03:15:42;;;;;;;5.85;3.37;;;;;;;14.07;77.92;101018.14;1757740;80;27634;-82
2022/06/17 03:18:10;;;;;;;8.10;3.60;;;;;;;14.11;77.89;101023.98;1727008;81;25842;-81
2022/06/17 03:20:38;;;;;;;4.85;2.87;;;;;;;14.13;77.73;101030.00;1739507;80;25764;-82
2022/06/17 03:23:16;;;;;;;4.03;3.00;;;;;;;14.13;77.73;101026.80;1724654;80;25849;-82
2022/06/17 03:25:59;;;;;;;3.50;2.92;;;;;;;14.15;77.68;101031.47;1772021;79;26302;-82
2022/06/17 03:28:30;;;;;;;4.20;3.00;;;;;;;14.19;77.78;101027.85;1763443;80;27469;-81
2022/06/17 03:31:40;;;;;;;5.42;3.35;;;;;;;14.26;77.92;101028.22;1740387;81;26105;-81
2022/06/17 03:34:15;;;;;;;8.08;3.85;;;;;;;14.35;77.96;101027.56;1738379;81;25827;-82
2022/06/17 03:36:55;;;;;;;4.72;3.20;;;;;;;14.43;77.74;101030.08;1751874;79;27036;-83
2022/06/17 03:39:39;;;;;;;3.97;2.93;;;;;;;14.48;77.84;101024.89;1738388;80;25844;-81
2022/06/17 03:42:31;;;;;;;4.50;3.00;;;;;;;14.54;77.76;101038.40;1751735;79;27425;-82
2022/06/17 03:45:12;;;;;;;4.97;3.30;;;;;;;14.57;77.87;101031.27;1726570;80;26007;-82
2022/06/17 03:47:53;;;;;;;4.28;2.98;;;;;;;14.61;77.95;101029.83;1722120;81;25830;-82
2022/06/17 03:50:25;;;;;;;4.15;3.08;;;;;;;14.65;78.00;101035.64;1727875;80;25911;-82
2022/06/17 03:53:00;;;;;;;4.65;3.40;;;;;;;14.71;78.11;101038.89;1722821;80;25834;-81
2022/06/17 03:55:29;;;;;;;8.38;3.67;;;;;;;14.75;78.02;101033.41;1753794;79;26863;-80
2022/06/17 03:58:01;;;;;;;4.33;3.42;;;;;;;14.81;78.05;101042.03;1777287;79;25832;-81
2022/06/17 04:00:39;;;;;;;4.65;3.30;;;;;;;14.86;77.97;101043.61;1759760;79;25775;-84
2022/06/17 04:03:13;;;;;;;6.10;3.30;;;;;;;14.91;78.10;101045.16;1729241;79;25804;-83
2022/06/17 04:05:42;;;;;;;5.10;3.42;;;;;;;14.98;78.03;101049.22;1762426;79;25943;-82
2022/06/17 04:08:10;;;;;;;12.35;4.58;;;;;;;15.04;78.08;101045.70;1739502;81;27452;-82
2022/06/17 04:10:37;;;;;;;4.25;3.17;;;;;;;15.11;78.13;101044.69;1723724;80;25840;-83
2022/06/17 04:13:06;;;;;;;4.30;3.02;;;;;;;15.20;78.15;101048.02;1740095;80;26393;-83
2022/06/17 04:15:43;;;;;;;8.28;3.70;;;;;;;15.26;77.79;101043.98;1715688;81;26594;-82
2022/06/17 04:18:09;;;;;;;5.47;3.00;;;;;;;15.35;78.10;101047.31;1735136;80;25758;-83
2022/06/17 04:20:58;;;;;;;5.75;3.08;;;;;;;15.42;77.94;101053.52;1740795;81;27469;-81
2022/06/17 04:23:27;;;;;;;5.15;2.95;;;;;;;15.50;77.72;101047.97;1693620;81;25385;-84
2022/06/17 04:26:10;;;;;;;3.75;3.10;;;;;;;15.56;77.36;101051.70;1749648;79;26028;-81
2022/06/17 04:28:50;;;;;;;3.80;3.02;;;;;;;15.53;77.31;101048.89;1767659;79;26600;-82
2022/06/17 04:31:23;;;;;;;5.87;2.80;;;;;;;15.55;77.31;101050.86;1768455;79;25725;-81
2022/06/17 04:33:55;;;;;;;5.12;3.55;;;;;;;15.61;77.43;101049.22;1773212;79;27647;-82
2022/06/17 04:36:47;;;;;;;4.55;2.83;;;;;;;15.62;77.43;101050.34;1727442;80;33300;-83
2022/06/17 04:39:34;;;;;;;3.85;2.80;;;;;;;15.66;77.11;101054.29;1777777;79;25871;-82
2022/06/17 04:42:33;;;;;;;3.83;2.95;;;;;;;15.73;77.23;101056.48;1713968;80;25827;-83
2022/06/17 04:45:00;;;;;;;4.05;2.85;;;;;;;15.83;77.20;101062.27;1743498;79;25348;-83
2022/06/17 04:47:30;;;;;;;3.55;2.52;;;;;;;15.91;77.24;101067.45;1728908;80;28298;-82
2022/06/17 04:50:03;;;;;;;7.87;2.63;;;;;;;15.95;76.71;101066.53;1744621;81;25773;-82
2022/06/17 04:52:38;;;;;;;3.67;2.90;;;;;;;16.02;76.64;101072.22;1713295;81;26470;-83
2022/06/17 04:55:14;;;;;;;5.20;2.35;;;;;;;16.07;76.73;101064.32;1742098;80;26543;-82
2022/06/17 04:57:52;;;;;;;3.05;2.00;;;;;;;16.14;76.29;101067.82;1730004;80;25920;-82
2022/06/17 05:00:24;;;;;;;4.78;2.40;;;;;;;16.25;76.50;101061.47;1739254;80;27466;-83
2022/06/17 05:02:53;;;;;;;5.25;2.42;;;;;;;16.35;76.06;101061.84;1735090;80;25312;-81
2022/06/17 05:05:34;;;;;;;5.35;2.33;;;;;;;16.46;76.07;101067.44;1732922;81;26334;-81
2022/06/17 05:08:07;;;;;;;3.35;2.20;;;;;;;16.54;75.77;101066.39;1731378;81;26567;-83
2022/06/17 05:10:40;;;;;;;2.95;2.10;;;;;;;16.63;75.52;101065.11;1742347;80;25276;-81
2022/06/17 05:13:29;;;;;;;3.33;2.12;;;;;;;16.71;75.46;101067.05;1752957;81;27476;-82
2022/06/17 05:15:58;;;;;;;2.35;1.50;;;;;;;16.77;75.44;101067.53;1678961;81;25359;-83
2022/06/17 05:18:24;;;;;;;4.67;1.80;;;;;;;16.81;74.70;101067.41;1764938;79;25788;-83
2022/06/17 05:20:53;;;;;;;3.02;1.90;;;;;;;16.89;75.17;101074.45;1705088;81;25792;-82
2022/06/17 05:23:20;;;;;;;3.77;1.60;;;;;;;16.95;74.72;101072.23;1707762;80;25991;-83
2022/06/17 05:25:49;;;;;;;5.00;1.70;;;;;;;17.02;73.79;101075.74;1728458;81;27621;-82
2022/06/17 05:28:20;;;;;;;4.95;1.65;;;;;;;17.04;73.53;101079.06;1760624;81;25771;-82
2022/06/17 05:30:52;;;;;;;4.80;1.67;;;;;;;17.10;73.47;101083.59;1738582;81;25860;-83
2022/06/17 05:33:21;;;;;;;2.85;1.50;;;;;;;17.19;73.48;101078.23;1739689;79;25840;-81
2022/06/17 05:35:48;;;;;;;4.28;1.85;;;;;;;17.22;73.00;101080.49;1714207;81;25768;-80
2022/06/17 05:38:16;;;;;;;1.70;1.30;;;;;;;17.27;73.43;101080.67;1712774;82;27452;-81
2022/06/17 05:40:44;;;;;;;3.35;1.77;;;;;;;17.37;73.43;101076.11;1763529;79;26440;-82
2022/06/17 05:43:12;;;;;;;2.65;1.40;;;;;;;17.48;73.72;101079.48;1772188;79;25846;-81
2022/06/17 05:45:39;;;;;;;3.70;1.70;;;;;;;17.55;72.12;101080.30;1743139;80;25817;-80
2022/06/17 05:48:10;;;;;;;1.90;1.60;;;;;;;17.60;72.13;101085.86;1727961;81;26062;-82
2022/06/17 05:50:47;;;;;;;5.62;1.85;;;;;;;17.66;71.72;101088.52;1656754;85;27482;-82
2022/06/17 05:53:27;;;;;;;5.55;2.10;;;;;;;17.71;72.19;101091.41;1727094;80;25918;-81
2022/06/17 05:55:56;;;;;;;3.30;1.80;;;;;;;17.80;71.37;101094.66;1737433;80;26541;-81
2022/06/17 05:58:24;;;;;;;3.25;1.72;;;;;;;17.85;71.51;101092.65;1755444;79;25874;-81
2022/06/17 06:00:52;;;;;;;3.95;2.35;;;;;;;17.92;71.29;101090.72;1736210;81;26496;-82
2022/06/17 06:03:23;;;;;;;4.40;2.00;;;;;;;17.92;71.06;101093.43;1747657;80;28259;-82
2022/06/17 06:05:49;;;;;;;;;;;;;;;17.97;71.88;101093.56;1753127;81;26571;-82
2022/06/17 06:08:18;;;;;;;4.65;1.75;;;;;;;17.98;70.48;101090.66;1738327;80;26517;-81
2022/06/17 06:10:46;;;;;;;4.00;2.15;;;;;;;17.96;71.29;101091.92;1757498;79;25852;-85
2022/06/17 06:13:19;;;;;;;4.60;2.47;;;;;;;18.05;72.06;101090.59;1732719;80;25782;-80
2022/06/17 06:15:49;;;;;;;3.85;2.47;;;;;;;18.17;71.73;101100.48;1736835;81;28353;-82
2022/06/17 06:18:24;;;;;;;4.33;2.42;;;;;;;18.21;70.65;101095.42;1729202;81;25853;-81
2022/06/17 06:20:51;;;;;;;3.33;1.98;;;;;;;18.24;70.87;101098.50;1705207;82;26548;-81
2022/06/17 06:23:18;;;;;;;3.12;2.10;;;;;;;18.31;69.77;101094.37;1725440;80;26273;-81
2022/06/17 06:25:45;;;;;;;4.65;2.15;;;;;;;18.32;69.70;101098.75;1731496;82;25299;-81
2022/06/17 06:28:16;;;;;;;4.70;1.92;;;;;;;18.34;69.82;101096.64;1753437;79;27451;-81
2022/06/17 06:30:52;;;;;;;5.28;2.00;;;;;;;18.40;69.92;101093.86;1766034;79;25881;-83
2022/06/17 06:33:18;;;;;;;5.45;2.20;;;;;;;18.46;69.82;101096.22;1755148;79;25815;-82
2022/06/17 06:35:45;;;;;;;6.83;1.82;;;;;;;18.45;68.85;101102.16;1758955;79;25943;-80
2022/06/17 06:38:12;;;;;;;4.65;2.10;;;;;;;18.46;69.26;101103.83;1748724;80;26513;-81
2022/06/17 06:40:40;;;;;;;5.08;2.17;;;;;;;18.55;68.90;101100.81;1696589;81;27432;-83
2022/06/17 06:43:15;;;;;;;5.20;1.95;;;;;;;18.64;69.22;101104.36;1743814;81;25816;-82
2022/06/17 06:46:07;;;;;;;2.70;2.10;;;;;;;18.69;69.01;101095.55;1737514;80;25287;-82
2022/06/17 06:48:37;;;;;;;3.35;1.90;;;;;;;18.73;69.03;101092.67;1729035;81;25860;-81
2022/06/17 06:51:03;;;;;;;4.87;2.77;;;;;;;18.86;68.97;101097.94;1731667;80;25948;-81
2022/06/17 06:53:30;;;;;;;3.15;2.10;;;;;;;18.83;68.79;101098.37;1742888;80;28268;-80
2022/06/17 06:55:56;;;;;;;3.45;2.10;;;;;;;18.87;68.78;101096.34;1774497;79;25856;-81
2022/06/17 06:58:25;;;;;;;5.47;1.60;;;;;;;18.85;67.80;101098.45;1742488;80;25820;-82
2022/06/17 07:00:56;;;;;;;3.02;1.87;;;;;;;18.82;66.56;101099.45;1736660;80;25746;-81
2022/06/17 07:03:26;;;;;;;4.72;1.65;;;;;;;18.89;67.83;101097.46;1729740;80;33360;-82
2022/06/17 07:05:57;;;;;;;5.12;1.87;;;;;;;19.01;67.60;101101.08;1740794;81;27635;-81
2022/06/17 07:08:28;;;;;;;3.27;2.05;;;;;;;19.08;67.76;101099.91;1735699;80;25756;-80
2022/06/17 07:10:59;;;;;;;2.95;1.50;;;;;;;19.19;67.34;101101.02;1729424;81;26275;-82
2022/06/17 07:13:28;;;;;;;2.22;1.37;;;;;;;19.29;66.40;101102.63;1753391;80;25837;-81
2022/06/17 07:15:56;;;;;;;2.62;1.50;;;;;;;19.33;65.11;101102.50;1788643;79;26432;-82
2022/06/17 07:18:29;;;;;;;3.47;1.75;;;;;;;19.36;64.96;101103.92;1749520;79;28278;-82
2022/06/17 07:21:00;;;;;;;4.95;1.50;;;;;;;19.42;64.83;101103.02;1771162;79;25977;-82
2022/06/17 07:23:34;;;;;;;3.33;1.50;;;;;;;19.45;64.85;101100.66;1742127;80;25871;-81
2022/06/17 07:26:07;;;;;;;1.85;1.40;;;;;;;19.40;64.22;101102.40;1706584;83;25973;-84
2022/06/17 07:28:34;;;;;;;4.83;1.50;;;;;;;19.36;64.54;101099.33;1711181;80;25920;-81
2022/06/17 07:31:01;;;;;;;2.12;1.62;;;;;;;19.46;65.43;101102.86;1746498;80;28350;-81
2022/06/17 07:33:30;;;;;;;1.62;1.30;;;;;;;19.54;63.78;101100.63;1736669;81;26003;-79
2022/06/17 07:36:01;;;;;;;6.30;1.50;;;;;;;19.52;64.23;101101.92;1741359;80;25599;-80
2022/06/17 07:41:24;;;;;;;4.42;1.32;;;;;;;19.57;64.50;101102.03;1739962;80;25804;-81
2022/06/17 07:43:51;;;;;;;2.83;1.00;;;;;;;19.60;62.44;101106.48;1744421;80;27433;-81
2022/06/17 07:46:18;;;;;;;10.78;1.80;;;;;;;19.49;63.15;101105.92;1747592;81;25784;-79
2022/06/17 07:48:45;;;;;;;3.47;1.30;;;;;;;19.53;61.96;101095.41;1736522;80;25926;-81
2022/06/17 07:51:11;;;;;;;3.45;1.75;;;;;;;19.66;63.54;101105.55;1751028;80;25813;-81
2022/06/17 07:53:42;;;;;;;4.90;1.90;;;;;;;19.78;62.38;101110.45;1721588;80;25515;-79
2022/06/17 07:56:13;;;;;;;2.20;1.70;;;;;;;19.85;63.62;101104.39;1755369;79;27459;-80
2022/06/17 07:58:39;;;;;;;2.08;1.50;;;;;;;19.84;62.54;101105.47;1741393;81;25995;-82
2022/06/17 08:01:06;;;;;;;3.10;1.40;;;;;;;19.80;62.54;101109.69;1724536;80;25739;-80
2022/06/17 08:03:34;;;;;;;4.80;1.40;;;;;;;19.79;62.51;101109.41;1774841;79;26561;-82
2022/06/17 08:06:02;;;;;;;4.55;1.50;;;;;;;19.90;63.06;101104.52;1760859;79;25742;-80
2022/06/17 08:08:29;;;;;;;3.45;1.30;;;;;;;20.03;62.50;101110.78;1757807;79;27492;-81
2022/06/17 08:10:59;;;;;;;5.60;1.60;;;;;;;19.95;61.57;101118.22;1779597;79;25838;-82
2022/06/17 08:13:26;;;;;;;5.60;2.40;;;;;;;19.94;62.55;101108.42;1752806;79;25285;-81
2022/06/17 08:15:57;;;;;;;5.15;1.65;;;;;;;20.09;61.35;101109.30;1763362;79;25771;-80
2022/06/17 08:18:23;;;;;;;;;;;;;;;20.18;62.10;101116.05;1773936;79;25750;-80
2022/06/17 08:20:50;;;;;;;3.02;1.50;;;;;;;20.30;61.73;101111.98;1771980;79;27497;-81
2022/06/17 08:23:17;;;;;;;2.52;1.47;;;;;;;20.29;61.33;101117.14;1726206;80;25783;-80
2022/06/17 08:25:44;;;;;;;2.75;1.52;;;;;;;20.25;61.60;101118.13;1728086;80;25699;-81
2022/06/17 08:28:12;;;;;;;4.33;2.35;;;;;;;20.27;61.50;101120.64;1730572;80;25804;-80
2022/06/17 08:30:47;;;;;;;2.75;1.00;;;;;;;20.38;60.71;101119.80;1752522;81;25333;-80
2022/06/17 08:33:13;;;;;;;2.40;1.27;;;;;;;20.45;60.26;101118.59;1719587;80;26899;-79
2022/06/17 08:35:48;;;;;;;6.90;1.25;;;;;;;20.30;58.99;101118.25;1721923;80;25316;-81
2022/06/17 08:38:28;;;;;;;2.98;1.35;;;;;;;20.31;60.22;101121.81;1766502;79;25768;-80
2022/06/17 08:40:58;;;;;;;2.25;1.22;;;;;;;20.41;60.35;101117.95;1750652;79;26166;-81
2022/06/17 08:44:00;;;;;;;3.40;1.10;;;;;;;20.54;58.53;101125.86;1749152;79;33818;-80
2022/06/17 08:46:53;;;;;;;3.72;1.35;;;;;;;20.67;60.02;101118.27;1747921;80;27464;-80
2022/06/17 08:49:34;;;;;;;2.12;1.10;;;;;;;20.84;57.45;101121.59;1757588;80;26458;-80
2022/06/17 08:52:17;;;;;;;1.67;0.85;;;;;;;20.82;58.53;101116.92;1725856;78;27062;-83
2022/06/17 08:55:13;;;;;;;2.12;1.32;;;;;;;20.89;58.81;101124.42;1738606;81;26632;-80
2022/06/17 08:58:09;;;;;;;1.72;1.42;;;;;;;20.96;58.08;101130.02;1739355;81;25944;-79
2022/06/17 09:01:05;;;;;;;1.70;1.60;;;;;;;20.92;57.24;101133.45;1731296;80;28286;-81
2022/06/17 09:03:49;;;;;;;4.75;2.30;;;;;;;20.98;59.09;101130.59;1734404;81;25529;-79
2022/06/17 09:06:55;;;;;;;2.87;1.70;;;;;;;20.95;56.47;101138.44;1716349;81;25794;-80
2022/06/17 09:09:59;;;;;;;2.92;1.50;;;;;;;20.91;57.14;101136.73;1719760;82;25867;-81
2022/06/17 09:13:12;;;;;;;3.02;1.70;;;;;;;20.94;58.19;101144.94;1749385;80;25859;-80
2022/06/17 09:16:01;;;;;;;6.37;1.60;;;;;;;21.11;57.26;101141.24;1739321;80;28311;-79
2022/06/17 09:18:50;;;;;;;2.08;1.90;;;;;;;21.30;57.45;101145.95;1734760;81;26392;-81
2022/06/17 09:21:25;;;;;;;5.35;2.17;;;;;;;21.37;56.89;101150.73;1730671;81;25814;-81
2022/06/17 09:23:53;;;;;;;3.80;1.42;;;;;;;21.27;57.43;101149.19;1746949;80;26480;-80
2022/06/17 09:26:28;;;;;;;1.60;1.30;;;;;;;21.11;57.20;101146.69;1736189;81;25835;-80
2022/06/17 09:29:11;;;;;;;3.22;1.20;;;;;;;21.14;57.41;101151.67;1692426;82;27447;-79
2022/06/17 09:31:58;;;;;;;1.72;1.60;;;;;;;21.21;57.97;101149.61;1732377;81;25542;-80
2022/06/17 09:34:30;;;;;;;3.75;1.55;;;;;;;21.33;57.79;101145.48;1720999;81;25612;-80
2022/06/17 09:37:14;;;;;;;4.60;1.30;;;;;;;21.40;57.95;101151.09;1702741;81;25814;-80
2022/06/17 09:39:51;;;;;;;1.55;1.27;;;;;;;21.37;57.20;101158.38;1745405;81;25833;-81
2022/06/17 09:42:24;;;;;;;4.12;0.90;;;;;;;;;;1732557;82;28225;-82
2022/06/17 09:45:11;;;;;;;1.50;0.72;;;;;;;21.63;56.38;101151.49;1736114;81;25730;-82
2022/06/17 09:47:51;;;;;;;2.37;0.82;;;;;;;21.76;55.07;101151.70;1745094;81;25808;-80
2022/06/17 09:50:35;;;;;;;2.17;0.80;;;;;;;21.80;55.09;101154.23;1720244;82;25781;-81
2022/06/17 09:53:41;;;;;;;2.87;1.00;;;;;;;21.89;54.59;101149.53;1742117;80;25830;-80
2022/06/17 09:56:19;;;;;;;4.55;1.75;;;;;;;21.88;54.54;101162.03;1746210;80;28365;-79
2022/06/17 09:58:51;;;;;;;3.83;1.10;;;;;;;21.66;53.14;101159.72;1721858;80;25858;-81
2022/06/17 10:01:19;;;;;;;1.65;0.70;;;;;;;21.54;53.80;101166.59;1750635;79;25854;-81
2022/06/17 10:03:46;;;;;;;1.90;0.60;;;;;;;21.58;55.21;101157.41;1741187;80;26393;-81
2022/06/17 10:09:32;;;;;;;2.87;0.90;;;;;;;21.87;54.80;101153.05;1707075;81;27158;-81
2022/06/17 10:12:07;;;;;;;2.67;0.80;;;;;;;22.04;53.85;101156.59;1700140;83;25959;-80
2022/06/17 10:15:02;;;;;;;2.50;1.20;;;;;;;22.06;52.85;101153.08;1705304;81;26659;-80
2022/06/17 10:20:59;;;;;;;2.47;0.78;;;;;;;22.02;53.75;101156.02;1730499;81;25852;-80
2022/06/17 10:23:39;;;;;;;3.22;1.07;;;;;;;21.90;53.86;101153.89;1687354;81;27630;-80
2022/06/17 10:26:36;;;;;;;3.30;0.75;;;;;;;21.76;53.97;101163.98;1732942;82;26475;-81
2022/06/17 10:29:26;;;;;;;5.22;1.35;;;;;;;21.65;54.98;101158.05;1749420;81;26559;-80
2022/06/17 10:31:53;;;;;;;2.67;0.88;;;;;;;21.79;55.64;101156.13;1718419;82;26627;-79
2022/06/17 10:34:36;;;;;;;1.80;0.80;;;;;;;21.89;55.31;101154.16;1746534;81;25874;-81
2022/06/17 10:37:05;;;;;;;1.72;0.70;;;;;;;21.93;54.21;101153.94;1732651;81;27461;-81
2022/06/17 10:39:35;;;;;;;2.12;0.70;;;;;;;21.83;54.09;101157.88;1738899;81;25808;-79
2022/06/17 10:42:03;;;;;;;2.62;0.82;;;;;;;21.71;53.80;101157.06;1728435;81;25895;-81
2022/06/17 10:44:32;;;;;;;3.75;0.70;;;;;;;21.64;53.32;101158.58;1716307;81;25890;-80
2022/06/17 10:47:36;;;;;;;2.37;0.82;;;;;;;21.77;54.10;101154.18;1733223;81;26139;-80
2022/06/17 10:50:23;;;;;;;3.72;0.70;;;;;;;21.86;53.01;101150.02;1686479;84;27477;-80
2022/06/17 10:53:16;;;;;;;3.22;0.70;;;;;;;21.79;52.99;101157.48;1699640;82;26550;-80
2022/06/17 10:55:47;;;;;;;1.75;0.57;;;;;;;21.68;53.53;101159.77;1728466;82;25813;-81
2022/06/17 10:58:19;;;;;;;1.50;0.62;;;;;;;21.47;51.62;101169.99;1748025;81;26519;-80
2022/06/17 11:00:54;;;;;;;2.42;0.93;;;;;;;21.31;52.29;101168.90;1737224;81;25625;-80
2022/06/17 11:03:40;;;;;;;2.67;0.93;;;;;;;21.40;54.71;101161.99;1749259;80;28297;-82
2022/06/17 11:06:19;;;;;;;3.17;1.12;;;;;;;21.58;53.48;101151.95;1728222;81;25361;-80
2022/06/17 11:08:56;;;;;;;4.40;1.02;;;;;;;21.63;53.53;101155.58;1746272;81;25285;-80
2022/06/17 11:14:25;;;;;;;1.50;0.85;;;;;;;21.59;53.31;101151.70;1741918;81;25770;-81
2022/06/17 11:16:54;;;;;;;1.47;0.60;;;;;;;21.53;52.37;101164.95;1778661;79;26599;-79
2022/06/17 11:19:24;;;;;;;0.98;0.57;;;;;;;21.61;52.28;101156.89;1772071;79;25278;-80
2022/06/17 11:21:56;;;;;;;2.00;0.85;;;;;;;21.73;51.19;101150.83;1755763;79;26074;-80
2022/06/17 11:24:31;;;;;;;3.92;0.70;;;;;;;21.85;51.12;101150.27;1750710;79;25960;-79
2022/06/17 11:27:09;;;;;;;0.90;0.50;;;;;;;21.97;51.24;101150.47;1768218;79;26204;-80
2022/06/17 11:29:46;;;;;;;5.83;0.80;;;;;;;22.09;53.10;101144.94;1764699;79;27509;-81
2022/06/17 11:32:24;;;;;;;1.17;1.00;;;;;;;22.08;52.22;101153.66;1782613;79;25695;-80
2022/06/17 11:34:59;;;;;;;1.70;0.88;;;;;;;22.07;51.63;101148.42;1777182;79;26011;-80
2022/06/17 11:37:33;;;;;;;1.35;0.70;;;;;;;22.13;51.73;101150.98;1751464;81;26742;-80
2022/06/17 11:40:22;;;;;;;1.67;0.60;;;;;;;22.30;50.16;101146.91;1755421;80;25992;-79
2022/06/17 11:43:06;;;;;;;1.52;0.82;;;;;;;22.49;50.48;101145.54;1748801;80;27458;-81
2022/06/17 11:45:36;;;;;;;2.42;0.80;;;;;;;22.74;50.03;101139.61;1747096;80;26715;-79
2022/06/17 11:48:12;;;;;;;;;;;;;;;22.81;50.44;101147.09;1749869;80;26558;-80
2022/06/17 11:50:42;;;;;;;4.00;0.80;;;;;;;22.68;50.28;101163.31;1746359;80;26433;-80
2022/06/17 11:53:16;;;;;;;2.02;0.80;;;;;;;22.50;49.39;101159.46;1744416;80;26473;-80
2022/06/17 11:55:47;;;;;;;1.47;0.80;;;;;;;22.33;50.51;101163.29;1744039;80;27467;-80
2022/06/17 11:58:17;;;;;;;;;;;;;;;22.27;50.82;101154.21;1754957;80;25779;-80
2022/06/17 12:00:51;;;;;;;1.62;0.70;;;;;;;22.26;50.48;101149.84;1751589;80;25894;-79
2022/06/17 12:03:22;;;;;;;3.05;0.80;;;;;;;22.24;50.59;101154.17;1748695;80;25984;-80
2022/06/17 12:05:59;;;;;;;3.58;0.70;;;;;;;22.31;49.75;101153.16;1762782;80;25912;-80
2022/06/17 12:08:43;;;;;;;1.87;0.80;;;;;;;22.49;50.09;101146.07;1743641;80;27483;-80
2022/06/17 12:11:23;;;;;;;2.17;0.85;;;;;;;22.68;50.49;101155.12;1746633;80;26462;-81
2022/06/17 12:13:55;;;;;;;2.90;0.90;;;;;;;22.68;49.94;101151.02;1764182;80;25913;-79